createdAt,value
2024-01-06T00:00:23.415Z,99943.31
2024-01-06T00:02:51.085Z,99938.34
2024-01-06T00:05:18.683Z,99919.47
2024-01-06T00:07:46.387Z,99876.19
2024-01-06T00:10:17.562Z,99912.84
2024-01-06T00:12:46.563Z,99891.44
2024-01-06T00:15:14.183Z,99941.88
2024-01-06T00:17:42.342Z,99939.31
2024-01-06T00:20:10.753Z,99927.22
2024-01-06T00:22:38.578Z,99845.31
2024-01-06T00:28:12.821Z,99960.28
2024-01-06T00:30:40.488Z,99960.09
2024-01-06T00:33:08.391Z,99951.63
2024-01-06T00:35:36.373Z,99954.25
2024-01-06T00:38:04.104Z,99944.81
2024-01-06T00:40:33.577Z,99923.56
2024-01-06T00:43:01.070Z,99948.63
2024-01-06T00:45:29.099Z,99953.66
2024-01-06T00:47:56.812Z,99889.81
2024-01-06T00:50:25.057Z,99931.81
2024-01-06T00:52:53.626Z,99956.28
2024-01-06T00:55:21.979Z,99958.91
2024-01-06T00:57:50.612Z,99952.22
2024-01-06T01:00:18.734Z,99962.06
2024-01-06T01:02:46.270Z,99952.22
2024-01-06T01:05:13.890Z,99942.78
2024-01-06T01:07:41.448Z,99961.19
2024-01-06T01:10:10.410Z,99951.81
2024-01-06T01:12:38.338Z,99919.06
2024-01-06T01:15:06.586Z,99959.41
2024-01-06T01:17:34.064Z,99951.94
2024-01-06T01:20:01.972Z,99935.84
2024-01-06T01:22:31.643Z,99958.44
2024-01-06T01:24:59.276Z,99955.84
2024-01-06T01:27:26.913Z,99966.84
2024-01-06T01:29:56.208Z,99916.66
2024-01-06T01:32:24.573Z,99951.41
2024-01-06T01:34:52.481Z,99935.75
2024-01-06T01:37:20.138Z,99944.88
2024-01-06T01:39:48.688Z,99943.81
2024-01-06T01:42:16.420Z,99934.09
2024-01-06T01:44:44.034Z,99946.34
2024-01-06T01:47:12.656Z,99930.53
2024-01-06T01:49:40.235Z,99954.72
2024-01-06T01:52:08.501Z,99900.13
2024-01-06T01:54:36.413Z,99934.84
2024-01-06T01:57:04.446Z,99918.84
2024-01-06T01:59:32.408Z,99945.81
2024-01-06T02:01:59.987Z,99942.75
2024-01-06T02:04:27.684Z,99943.47
2024-01-06T02:06:55.210Z,99927.47
2024-01-06T02:09:28.360Z,99935.09
2024-01-06T02:11:58.122Z,99933.31
2024-01-06T02:14:27.026Z,99931.56
2024-01-06T02:16:54.773Z,99930.44
2024-01-06T02:19:22.850Z,99937.66
2024-01-06T02:21:56.555Z,99868.28
2024-01-06T02:24:24.181Z,99928.97
2024-01-06T02:26:52.013Z,99935.59
2024-01-06T02:29:19.736Z,99936.38
2024-01-06T02:31:47.327Z,99870.88
2024-01-06T02:34:15.188Z,99925.47
2024-01-06T02:36:42.998Z,99924.63
2024-01-06T02:39:10.657Z,99912.00
2024-01-06T02:41:38.440Z,99918.47
2024-01-06T02:44:06.598Z,99859.47
2024-01-06T02:46:34.364Z,99925.75
2024-01-06T02:49:02.249Z,99923.34
2024-01-06T02:51:29.901Z,99935.63
2024-01-06T02:53:57.365Z,99935.50
2024-01-06T02:56:24.854Z,99938.81
2024-01-06T02:58:52.396Z,99948.19
2024-01-06T03:01:20.008Z,99947.44
2024-01-06T03:03:48.350Z,99931.06
2024-01-06T03:06:16.020Z,99948.34
2024-01-06T03:08:43.666Z,99960.66
2024-01-06T03:11:12.320Z,99944.69
2024-01-06T03:13:40.018Z,99948.84
2024-01-06T03:16:08.663Z,99958.91
2024-01-06T03:18:36.395Z,99957.94
2024-01-06T03:21:04.325Z,99959.22
2024-01-06T03:23:31.999Z,99961.72
2024-01-06T03:25:59.630Z,99956.28
2024-01-06T03:28:27.289Z,99967.91
2024-01-06T03:30:55.086Z,99954.69
2024-01-06T03:33:22.598Z,99954.63
2024-01-06T03:35:50.233Z,99951.22
2024-01-06T03:38:18.168Z,99957.09
2024-01-06T03:40:45.751Z,99954.38
2024-01-06T03:43:13.528Z,99902.34
2024-01-06T03:45:41.349Z,99959.63
2024-01-06T03:48:09.279Z,99953.78
2024-01-06T03:50:36.837Z,99950.19
2024-01-06T03:53:04.396Z,99894.38
2024-01-06T03:55:35.341Z,99955.63
2024-01-06T03:58:03.110Z,99958.16
2024-01-06T04:00:30.721Z,99978.25
2024-01-06T04:02:58.364Z,99921.38
2024-01-06T04:05:26.139Z,99975.41
2024-01-06T04:07:53.822Z,99980.31
2024-01-06T04:10:21.493Z,99980.16
2024-01-06T04:12:49.194Z,99988.59
2024-01-06T04:15:17.618Z,99975.69
2024-01-06T04:17:45.352Z,99986.06
2024-01-06T04:20:14.092Z,99984.72
2024-01-06T04:22:41.894Z,100003.16
2024-01-06T04:25:09.579Z,99993.44
2024-01-06T04:27:37.209Z,99976.47
2024-01-06T04:30:05.301Z,99994.06
2024-01-06T04:32:33.606Z,99971.41
2024-01-06T04:35:01.279Z,99969.66
2024-01-06T04:37:29.045Z,100005.78
2024-01-06T04:39:56.910Z,99942.44
2024-01-06T04:42:24.736Z,100009.09
2024-01-06T04:44:52.232Z,99956.78
2024-01-06T04:47:19.953Z,99953.28
2024-01-06T04:49:47.654Z,99987.50
2024-01-06T04:52:15.581Z,99991.84
2024-01-06T04:54:43.011Z,100011.13
2024-01-06T04:57:10.897Z,100030.97
2024-01-06T04:59:38.427Z,99961.81
2024-01-06T05:02:06.291Z,99987.47
2024-01-06T05:04:34.183Z,99988.38
2024-01-06T05:07:01.789Z,100004.09
2024-01-06T05:09:29.550Z,100044.78
2024-01-06T05:11:57.039Z,100043.94
2024-01-06T05:14:25.005Z,100039.75
2024-01-06T05:16:52.789Z,100038.00
2024-01-06T05:19:22.405Z,100050.38
2024-01-06T05:21:50.582Z,100041.66
2024-01-06T05:24:19.012Z,100013.00
2024-01-06T05:26:46.828Z,100033.63
2024-01-06T05:29:14.437Z,100027.50
2024-01-06T05:31:42.404Z,99967.53
2024-01-06T05:34:15.707Z,100039.19
2024-01-06T05:36:43.594Z,100041.72
2024-01-06T05:39:11.616Z,100041.25
2024-01-06T05:41:42.422Z,100026.38
2024-01-06T05:44:10.198Z,99979.50
2024-01-06T05:46:37.964Z,100035.22
2024-01-06T05:49:06.115Z,100030.03
2024-01-06T05:51:33.779Z,100022.31
2024-01-06T05:54:01.847Z,100014.69
2024-01-06T05:56:30.142Z,100030.47
2024-01-06T05:58:57.574Z,100025.84
2024-01-06T06:01:25.349Z,100026.56
2024-01-06T06:03:53.164Z,100017.84
2024-01-06T06:06:21.336Z,100016.34
2024-01-06T06:08:49.922Z,100022.72
2024-01-06T06:11:17.972Z,100038.06
2024-01-06T06:13:45.603Z,100041.84
2024-01-06T06:16:16.310Z,100016.16
2024-01-06T06:18:44.040Z,100051.53
2024-01-06T06:21:11.754Z,100047.19
2024-01-06T06:23:39.799Z,100058.59
2024-01-06T06:26:08.270Z,100032.13
2024-01-06T06:28:36.819Z,100055.00
2024-01-06T06:31:05.592Z,100053.28
2024-01-06T06:33:35.080Z,100005.63
2024-01-06T06:36:03.212Z,100070.34
2024-01-06T06:38:31.063Z,100052.81
2024-01-06T06:40:58.728Z,100048.41
2024-01-06T06:43:26.199Z,100057.47
2024-01-06T06:45:54.168Z,100033.50
2024-01-06T06:48:27.533Z,100056.94
2024-01-06T06:50:55.290Z,100066.00
2024-01-06T06:53:22.660Z,100046.22
2024-01-06T06:55:50.086Z,100022.72
2024-01-06T06:58:17.819Z,100070.06
2024-01-06T07:00:45.520Z,100060.34
2024-01-06T07:03:14.732Z,100075.81
2024-01-06T07:05:42.680Z,100049.00
2024-01-06T07:08:10.304Z,100077.34
2024-01-06T07:10:37.818Z,100068.22
2024-01-06T07:13:05.370Z,100069.16
2024-01-06T07:15:33.034Z,100061.78
2024-01-06T07:18:00.766Z,100056.94
2024-01-06T07:20:28.568Z,100071.31
2024-01-06T07:22:56.720Z,100023.53
2024-01-06T07:25:24.303Z,100059.41
2024-01-06T07:27:55.181Z,100080.31
2024-01-06T07:30:23.484Z,100067.69
2024-01-06T07:32:53.448Z,100084.97
2024-01-06T07:35:21.238Z,100080.63
2024-01-06T07:37:50.354Z,100073.13
2024-01-06T07:40:18.406Z,100067.44
2024-01-06T07:42:46.941Z,100007.03
2024-01-06T07:45:14.883Z,100071.28
2024-01-06T07:47:43.207Z,100057.97
2024-01-06T07:50:11.133Z,100065.84
2024-01-06T07:52:39.704Z,100050.66
2024-01-06T07:55:07.497Z,100056.88
2024-01-06T07:57:35.117Z,100054.22
2024-01-06T08:00:06.120Z,100026.69
2024-01-06T08:02:39.933Z,100049.72
2024-01-06T08:05:08.452Z,99990.00
2024-01-06T08:07:36.124Z,100048.19
2024-01-06T08:10:07.042Z,100020.97
2024-01-06T08:12:35.774Z,100050.66
2024-01-06T08:15:03.743Z,100043.09
2024-01-06T08:17:32.783Z,100042.44
2024-01-06T08:20:01.224Z,100054.84
2024-01-06T08:22:29.107Z,100047.22
2024-01-06T08:24:56.923Z,100031.03
2024-01-06T08:27:25.430Z,100041.06
2024-01-06T08:29:53.406Z,100048.22
2024-01-06T08:32:21.173Z,100036.97
2024-01-06T08:34:48.628Z,100016.03
2024-01-06T08:37:16.386Z,100042.75
2024-01-06T08:39:43.903Z,100024.72
2024-01-06T08:42:11.636Z,100039.44
2024-01-06T08:44:39.300Z,100017.72
2024-01-06T08:47:06.959Z,100028.19
2024-01-06T08:49:34.855Z,100005.66
2024-01-06T08:52:02.411Z,100023.22
2024-01-06T08:54:32.773Z,100006.34
2024-01-06T08:57:01.085Z,100011.91
2024-01-06T08:59:28.866Z,99999.56
2024-01-06T09:01:57.259Z,99986.44
2024-01-06T09:04:24.959Z,100024.31
2024-01-06T09:06:52.961Z,100029.91
2024-01-06T09:09:20.574Z,100023.28
2024-01-06T09:11:48.232Z,100024.84
2024-01-06T09:14:15.863Z,100028.59
2024-01-06T09:16:43.311Z,100025.16
2024-01-06T09:19:11.125Z,100020.47
2024-01-06T09:21:38.657Z,100010.44
2024-01-06T09:24:07.940Z,100024.69
2024-01-06T09:26:35.771Z,100015.31
2024-01-06T09:29:04.515Z,100009.38
2024-01-06T09:31:32.363Z,100012.91
2024-01-06T09:34:07.493Z,100013.56
2024-01-06T09:36:35.209Z,100006.88
2024-01-06T09:39:03.133Z,99990.78
2024-01-06T09:41:30.806Z,99921.53
2024-01-06T09:43:58.666Z,100011.59
2024-01-06T09:46:27.797Z,99986.31
2024-01-06T09:49:03.149Z,100006.56
2024-01-06T09:51:30.942Z,100018.56
2024-01-06T09:54:00.160Z,99970.13
2024-01-06T09:56:30.069Z,99993.41
2024-01-06T09:58:58.224Z,100023.94
2024-01-06T10:01:26.492Z,100018.97
2024-01-06T10:03:54.737Z,100012.81
2024-01-06T10:06:22.706Z,100004.22
2024-01-06T10:08:52.413Z,100013.66
2024-01-06T10:11:28.839Z,100014.88
2024-01-06T10:13:56.427Z,100001.06
2024-01-06T10:16:24.129Z,100017.19
2024-01-06T10:18:54.109Z,100014.56
2024-01-06T10:21:27.569Z,100013.06
2024-01-06T10:23:56.011Z,100017.38
2024-01-06T10:26:23.918Z,100014.38
2024-01-06T10:28:53.004Z,99993.34
2024-01-06T10:31:20.794Z,99986.34
2024-01-06T10:33:49.913Z,99970.09
2024-01-06T10:36:18.208Z,100012.19
2024-01-06T10:38:48.573Z,100015.56
2024-01-06T10:41:17.979Z,100025.63
2024-01-06T10:43:48.366Z,100021.53
2024-01-06T10:46:17.446Z,99987.06
2024-01-06T10:48:47.459Z,100011.00
2024-01-06T10:51:16.595Z,100016.94
2024-01-06T10:53:45.043Z,100021.19
2024-01-06T10:56:12.961Z,100014.69
2024-01-06T10:58:48.349Z,100020.66
2024-01-06T11:01:25.728Z,100015.91
2024-01-06T11:03:56.675Z,100018.53
2024-01-06T11:06:25.221Z,100010.25
2024-01-06T11:09:03.335Z,100012.13
2024-01-06T11:11:31.964Z,100017.38
2024-01-06T11:14:23.329Z,100009.16
2024-01-06T11:16:51.576Z,100011.81
2024-01-06T11:19:38.534Z,100006.97
2024-01-06T11:22:24.397Z,100005.75
2024-01-06T11:24:54.505Z,100011.22
2024-01-06T11:27:25.161Z,100009.22
2024-01-06T11:29:55.497Z,100019.88
2024-01-06T11:32:27.468Z,100017.47
2024-01-06T11:34:57.731Z,99987.97
2024-01-06T11:37:40.454Z,100012.50
2024-01-06T11:40:30.638Z,100019.25
2024-01-06T11:43:02.787Z,100019.66
2024-01-06T11:45:30.610Z,100022.41
2024-01-06T11:48:01.631Z,100021.31
2024-01-06T11:50:30.340Z,100029.69
2024-01-06T11:52:58.025Z,100001.44
2024-01-06T11:55:25.851Z,100006.88
2024-01-06T11:57:53.747Z,100030.88
2024-01-06T12:00:21.621Z,100016.53
2024-01-06T12:02:49.741Z,100018.13
2024-01-06T12:05:19.698Z,100028.13
2024-01-06T12:08:09.174Z,99991.78
2024-01-06T12:10:38.673Z,100026.41
2024-01-06T12:13:10.302Z,100027.44
2024-01-06T12:15:41.904Z,99996.09
2024-01-06T12:18:10.343Z,100004.34
2024-01-06T12:20:38.108Z,99994.72
2024-01-06T12:23:07.821Z,100021.47
2024-01-06T12:25:40.426Z,100034.88
2024-01-06T12:28:09.494Z,100027.25
2024-01-06T12:30:37.733Z,100034.50
2024-01-06T12:33:05.929Z,100026.03
2024-01-06T12:35:33.829Z,100030.81
2024-01-06T12:38:08.165Z,100029.13
2024-01-06T12:40:41.162Z,100013.25
2024-01-06T12:43:08.788Z,100026.03
2024-01-06T12:45:36.473Z,100036.97
2024-01-06T12:48:04.412Z,100046.25
2024-01-06T12:50:32.119Z,100040.53
2024-01-06T12:52:59.643Z,100037.03
2024-01-06T12:55:27.229Z,100032.03
2024-01-06T12:57:54.964Z,100026.97
2024-01-06T13:00:22.875Z,100013.56
2024-01-06T13:02:50.573Z,100015.38
2024-01-06T13:05:18.136Z,100017.03
2024-01-06T13:07:45.733Z,100019.56
2024-01-06T13:10:13.348Z,100024.75
2024-01-06T13:12:40.894Z,100003.97
2024-01-06T13:15:12.666Z,100019.13
2024-01-06T13:17:40.405Z,99953.47
2024-01-06T13:20:09.337Z,100017.34
2024-01-06T13:22:36.992Z,100015.78
2024-01-06T13:25:08.601Z,100026.66
2024-01-06T13:27:37.548Z,100001.44
2024-01-06T13:30:06.150Z,100004.88
2024-01-06T13:32:33.800Z,99961.09
2024-01-06T13:35:05.799Z,100029.28
2024-01-06T13:37:33.882Z,100025.09
2024-01-06T13:40:01.452Z,99978.94
2024-01-06T13:42:31.805Z,99979.59
2024-01-06T13:45:01.803Z,100037.50
2024-01-06T13:47:31.466Z,100040.75
2024-01-06T13:49:59.763Z,100043.28
2024-01-06T13:52:27.991Z,100037.34
2024-01-06T13:54:55.578Z,99996.84
2024-01-06T13:57:23.244Z,99975.06
2024-01-06T13:59:50.872Z,100044.03
2024-01-06T14:02:18.939Z,100040.03
2024-01-06T14:04:46.894Z,100024.28
2024-01-06T14:07:14.697Z,100016.00
2024-01-06T14:09:42.258Z,100022.75
2024-01-06T14:12:09.966Z,100012.72
2024-01-06T14:14:37.540Z,100035.22
2024-01-06T14:17:05.290Z,100020.69
2024-01-06T14:19:33.334Z,100020.69
2024-01-06T14:22:01.095Z,100041.88
2024-01-06T14:24:28.556Z,99949.56
2024-01-06T14:26:57.226Z,100032.81
2024-01-06T14:29:25.337Z,100034.34
2024-01-06T14:31:53.344Z,100036.84
2024-01-06T14:34:21.054Z,100035.84
2024-01-06T14:36:51.606Z,100044.03
2024-01-06T14:39:23.093Z,100048.28
2024-01-06T14:41:51.820Z,100050.00
2024-01-06T14:44:22.554Z,100034.97
2024-01-06T14:46:51.926Z,100019.84
2024-01-06T14:49:19.518Z,100052.56
2024-01-06T14:51:47.064Z,100055.06
2024-01-06T14:54:14.670Z,100034.19
2024-01-06T14:56:42.537Z,100029.28
2024-01-06T14:59:10.764Z,100008.28
2024-01-06T15:01:38.696Z,100048.88
2024-01-06T15:04:06.957Z,100031.91
2024-01-06T15:06:36.000Z,99996.38
2024-01-06T15:09:03.594Z,100064.56
2024-01-06T15:11:31.141Z,100007.47
2024-01-06T15:13:58.698Z,100061.31
2024-01-06T15:16:26.776Z,100064.56
2024-01-06T15:18:57.174Z,100061.22
2024-01-06T15:21:26.682Z,100046.97
2024-01-06T15:23:55.504Z,100053.16
2024-01-06T15:26:26.649Z,100041.41
2024-01-06T15:28:54.781Z,100043.88
2024-01-06T15:31:22.313Z,100063.31
2024-01-06T15:33:50.038Z,100032.25
2024-01-06T15:36:17.771Z,100071.84
2024-01-06T15:38:45.454Z,100063.41
2024-01-06T15:41:13.050Z,100064.22
2024-01-06T15:43:40.758Z,100069.91
2024-01-06T15:46:08.885Z,100062.28
2024-01-06T15:48:37.650Z,100060.91
2024-01-06T15:51:05.875Z,100059.13
2024-01-06T15:53:35.062Z,100075.06
2024-01-06T15:56:03.149Z,100086.06
2024-01-06T15:58:30.903Z,100081.09
2024-01-06T16:05:10.719Z,100086.75
2024-01-06T16:07:47.449Z,100042.16
2024-01-06T16:10:14.978Z,100097.13
2024-01-06T16:12:43.359Z,100095.88
2024-01-06T16:15:11.370Z,100094.38
2024-01-06T16:17:39.125Z,100089.47
2024-01-06T16:20:07.913Z,100091.16
2024-01-06T16:22:35.503Z,100099.16
2024-01-06T16:25:03.280Z,100092.34
2024-01-06T16:27:31.737Z,100093.00
2024-01-06T16:29:59.556Z,100072.75
2024-01-06T16:32:27.482Z,100090.28
2024-01-06T16:34:55.211Z,100098.63
2024-01-06T16:37:22.836Z,100111.91
2024-01-06T16:39:50.647Z,100102.63
2024-01-06T16:42:18.226Z,100091.09
2024-01-06T16:44:45.832Z,100090.13
2024-01-06T16:47:13.533Z,100079.25
2024-01-06T16:49:41.054Z,100085.59
2024-01-06T16:52:08.795Z,100077.06
2024-01-06T16:54:36.286Z,100097.16
2024-01-06T16:57:04.586Z,100096.25
2024-01-06T16:59:34.909Z,100094.47
2024-01-06T17:02:04.097Z,100087.78
2024-01-06T17:04:33.805Z,100067.47
2024-01-06T17:07:02.559Z,100059.09
2024-01-06T17:09:30.312Z,100091.22
2024-01-06T17:11:58.089Z,100022.78
2024-01-06T17:14:25.764Z,100086.22
2024-01-06T17:16:53.434Z,100094.53
2024-01-06T17:19:22.081Z,100105.31
2024-01-06T17:21:50.085Z,100104.63
2024-01-06T17:24:17.695Z,100057.50
2024-01-06T17:26:45.219Z,100111.53
2024-01-06T17:29:16.106Z,100070.56
2024-01-06T17:31:44.662Z,100100.22
2024-01-06T17:34:12.555Z,100112.59
2024-01-06T17:36:40.122Z,100113.03
2024-01-06T17:39:09.000Z,100106.34
2024-01-06T17:41:49.426Z,100118.88
2024-01-06T17:44:21.098Z,100104.47
2024-01-06T17:46:48.732Z,100112.72
2024-01-06T17:49:16.298Z,100106.13
2024-01-06T17:51:44.146Z,100111.13
2024-01-06T17:54:11.993Z,100111.28
2024-01-06T17:56:39.520Z,100104.63
2024-01-06T17:59:07.543Z,100103.78
2024-01-06T18:01:36.626Z,100091.97
2024-01-06T18:04:04.586Z,100044.97
2024-01-06T18:06:32.178Z,100102.34
2024-01-06T18:09:00.042Z,100109.03
2024-01-06T18:11:27.561Z,100105.53
2024-01-06T18:13:55.139Z,100065.00
2024-01-06T18:16:22.691Z,100105.22
2024-01-06T18:18:50.521Z,100040.28
2024-01-06T18:21:18.579Z,100103.31
2024-01-06T18:23:46.768Z,100090.75
2024-01-06T18:26:14.680Z,100067.88
2024-01-06T18:28:42.222Z,100104.06
2024-01-06T18:31:09.969Z,100103.25
2024-01-06T18:33:37.593Z,100059.56
2024-01-06T18:36:05.974Z,100109.03
2024-01-06T18:38:33.729Z,100112.28
2024-01-06T18:41:03.620Z,100102.19
2024-01-06T18:43:32.460Z,100097.00
2024-01-06T18:46:00.263Z,100100.25
2024-01-06T18:48:28.075Z,100094.28
2024-01-06T18:50:57.099Z,100071.38
2024-01-06T18:53:24.651Z,100051.94
2024-01-06T18:55:52.957Z,100056.03
2024-01-06T18:58:20.579Z,100103.84
2024-01-06T19:00:48.313Z,100112.09
2024-01-06T19:03:15.888Z,100094.53
2024-01-06T19:05:43.629Z,100095.44
2024-01-06T19:08:12.262Z,100071.22
2024-01-06T19:10:39.987Z,100101.84
2024-01-06T19:13:09.876Z,100071.38
2024-01-06T19:15:40.396Z,100104.31
2024-01-06T19:18:08.580Z,100101.88
2024-01-06T19:20:36.544Z,100095.94
2024-01-06T19:23:09.482Z,100077.44
2024-01-06T19:25:38.422Z,100101.59
2024-01-06T19:28:07.125Z,100102.28
2024-01-06T19:30:35.455Z,100093.78
2024-01-06T19:33:03.374Z,100100.34
2024-01-06T19:35:32.910Z,100111.91
2024-01-06T19:38:00.296Z,100110.25
2024-01-06T19:40:27.717Z,100106.97
2024-01-06T19:42:55.253Z,100054.81
2024-01-06T19:45:23.127Z,100116.38
2024-01-06T19:47:50.841Z,100117.31
2024-01-06T19:50:18.567Z,100117.16
2024-01-06T19:52:45.972Z,100127.03
2024-01-06T19:55:13.711Z,100122.78
2024-01-06T19:57:41.611Z,100122.09
2024-01-06T20:00:10.239Z,100132.25
2024-01-06T20:02:38.327Z,100117.16
2024-01-06T20:05:08.624Z,100114.59
2024-01-06T20:07:36.318Z,100127.81
2024-01-06T20:10:04.074Z,100134.38
2024-01-06T20:12:33.017Z,100120.75
2024-01-06T20:15:00.666Z,100129.19
2024-01-06T20:17:28.355Z,100128.31
2024-01-06T20:19:55.974Z,100143.09
2024-01-06T20:22:23.713Z,100126.47
2024-01-06T20:24:51.319Z,100134.25
2024-01-06T20:27:19.788Z,100137.56
2024-01-06T20:29:47.839Z,100139.97
2024-01-06T20:32:15.528Z,100127.59
2024-01-06T20:34:45.910Z,100132.38
2024-01-06T20:37:13.893Z,100137.88
2024-01-06T20:39:41.470Z,100130.97
2024-01-06T20:42:09.043Z,100134.94
2024-01-06T20:44:37.538Z,100134.22
2024-01-06T20:47:05.176Z,100144.28
2024-01-06T20:49:32.842Z,100131.81
2024-01-06T20:52:00.494Z,100130.09
2024-01-06T20:54:28.230Z,100141.75
2024-01-06T20:56:55.897Z,100122.41
2024-01-06T20:59:23.380Z,100142.66
2024-01-06T21:01:50.900Z,100147.63
2024-01-06T21:04:18.757Z,100146.78
2024-01-06T21:06:46.317Z,100140.34
2024-01-06T21:09:13.818Z,100154.41
2024-01-06T21:11:44.134Z,100146.63
2024-01-06T21:14:11.500Z,100160.22
2024-01-06T21:16:41.102Z,100166.81
2024-01-06T21:19:08.810Z,100167.50
2024-01-06T21:21:36.387Z,100171.00
2024-01-06T21:24:04.167Z,100148.47
2024-01-06T21:26:33.828Z,100160.44
2024-01-06T21:29:01.583Z,100159.66
2024-01-06T21:31:29.297Z,100162.13
2024-01-06T21:33:57.018Z,100165.50
2024-01-06T21:36:25.381Z,100139.31
2024-01-06T21:38:53.015Z,100165.66
2024-01-06T21:41:21.992Z,100168.22
2024-01-06T21:43:49.459Z,100166.38
2024-01-06T21:46:16.933Z,100182.19
2024-01-06T21:48:44.743Z,100185.56
2024-01-06T21:51:12.437Z,100134.09
2024-01-06T21:53:39.848Z,100192.25
2024-01-06T21:56:07.195Z,100190.59
2024-01-06T21:58:35.668Z,100206.75
2024-01-06T22:01:03.532Z,100198.63
2024-01-06T22:03:31.322Z,100204.75
2024-01-06T22:05:59.018Z,100199.00
2024-01-06T22:08:26.816Z,100210.75
2024-01-06T22:10:54.387Z,100212.34
2024-01-06T22:13:21.905Z,100204.03
2024-01-06T22:15:49.592Z,100202.47
2024-01-06T22:18:17.398Z,100204.78
2024-01-06T22:20:44.872Z,100222.44
2024-01-06T22:23:12.677Z,100216.53
2024-01-06T22:25:42.180Z,100221.34
2024-01-06T22:28:11.491Z,100225.75
2024-01-06T22:30:39.575Z,100207.16
2024-01-06T22:33:08.055Z,100232.84
2024-01-06T22:35:36.323Z,100185.66
2024-01-06T22:38:03.988Z,100228.25
2024-01-06T22:40:31.652Z,100226.72
2024-01-06T22:42:59.906Z,100225.94
2024-01-06T22:45:31.395Z,100227.66
2024-01-06T22:47:59.223Z,100237.75
2024-01-06T22:50:27.135Z,100242.75
2024-01-06T22:52:55.218Z,100241.09
2024-01-06T22:55:22.821Z,100252.84
2024-01-06T22:57:50.862Z,100247.03
2024-01-06T23:00:28.951Z,100247.78
2024-01-06T23:02:58.542Z,100252.81
2024-01-06T23:05:26.230Z,100234.66
2024-01-06T23:07:54.220Z,100240.72
2024-01-06T23:10:21.697Z,100186.81
2024-01-06T23:12:49.457Z,100239.28
2024-01-06T23:15:17.582Z,100238.34
2024-01-06T23:17:45.481Z,100251.06
2024-01-06T23:20:15.224Z,100237.44
2024-01-06T23:22:43.446Z,100245.34
2024-01-06T23:25:11.314Z,100243.78
2024-01-06T23:27:40.502Z,100246.22
2024-01-06T23:30:09.550Z,100197.56
2024-01-06T23:32:37.663Z,100245.81
2024-01-06T23:35:05.907Z,100210.31
2024-01-06T23:37:33.759Z,100250.16
2024-01-06T23:40:01.663Z,100250.84
2024-01-06T23:42:32.142Z,100239.94
2024-01-06T23:44:59.780Z,100264.19
2024-01-06T23:47:28.245Z,100256.00
2024-01-06T23:49:56.159Z,100261.09
2024-01-06T23:52:24.111Z,100268.56
2024-01-06T23:54:51.914Z,100276.91
2024-01-06T23:57:19.351Z,100280.16
2024-01-06T23:59:47.045Z,100253.13
